• Join FlightAware (Why Join?)
  • Login
  • US Flag 
11:22PM EST


 

Airport Tracker/Info


-or-


 

Live Flight TrackerFlight Track Log ✈ LXJ437 ✈ 18-Jun-2013 ✈ KSFO - KJAC

Flight Track Log - Related Links

Times and Time Zones

All times are in EDT time to prevent confusion due to time zone crossing. See the LXJ437 flight status page for this flight to view local times or setup timezone preferences in your user account.

Time Position Orientation Groundspeed Altitude Reporting Facility
EDT Latitude Longitude Course Direction KTS MPH feet Rate Location/Type
08:26AM 37.6533 -122.3478 53° Northeast 185 213 2,900  Level Oakland Center
08:27AM 37.7036 -122.3333 13° North 196 226 6,100 3,060 Climbing Oakland Center
08:28AM 37.7619 -122.3653 337° Northwest 228 262 9,100 3,000 Climbing Oakland Center
08:29AM 37.8425 -122.3669 359° North 321 369 12,100 3,180 Climbing Oakland Center
08:30AM 37.9194 -122.2772 43° Northeast 386 444 15,500 3,540 Climbing Oakland Center
08:31AM 38.0813 -122.1200 53° Northeast  Level FlightAware Approximate
08:31AM 37.9967 -122.1675 48° Northeast 414 476 19,300  Level Oakland Center
08:32AM 38.0697 -122.0447 53° Northeast 433 498 22,400 3,000 Climbing Oakland Center
08:33AM 38.1422 -121.9133 55° Northeast 449 517 25,400 2,940 Climbing Oakland Center
08:34AM 38.2161 -121.7806 55° Northeast 459 528 28,300 2,700 Climbing Oakland Center
08:35AM 38.2919 -121.6472 54° Northeast 464 534 30,900 2,280 Climbing Oakland Center
08:36AM 38.3672 -121.5119 55° Northeast 468 539 32,900 1,920 Climbing Oakland Center
08:37AM 38.4444 -121.3739 54° Northeast 476 548 34,800 1,920 Climbing Oakland Center
08:38AM 38.5214 -121.2322 55° Northeast 485 558 36,800 1,980 Climbing Oakland Center
08:39AM 38.6083 -121.0775 54° Northeast 479 551 38,800 1,680 Climbing Oakland Center
08:40AM 38.6839 -120.9400 55° Northeast 474 545 40,200 1,440 Climbing Oakland Center
08:41AM 38.7589 -120.8031 55° Northeast 471 542 41,700 1,260 Climbing Oakland Center
08:42AM 38.8319 -120.6681 55° Northeast 464 534 42,800 900 Climbing Oakland Center
08:43AM 38.9050 -120.5325 55° Northeast 462 532 43,600 600 Climbing Oakland Center
08:44AM 38.9789 -120.3967 55° Northeast 465 535 44,100 300 Climbing Oakland Center
08:45AM 39.0542 -120.2550 56° Northeast 478 550 44,300 180 Climbing Oakland Center
08:46AM 39.1328 -120.1086 55° Northeast 490 564 44,500 300 Climbing Oakland Center
08:47AM 39.2122 -119.9628 55° Northeast 495 570 45,000 240 Climbing Oakland Center
08:48AM 39.2919 -119.8131 55° Northeast 502 578 45,000  Level Oakland Center
08:49AM 39.3711 -119.6644 55° Northeast 501 577 45,000  Level Oakland Center
08:50AM 39.4475 -119.5172 56° Northeast 494 568 45,000  Level Oakland Center
08:51AM 39.5231 -119.3706 56° Northeast 489 563 45,000  Level Oakland Center
08:52AM 39.6003 -119.2211 56° Northeast 493 567 45,000  Level Oakland Center
08:53AM 39.6767 -119.0728 56° Northeast 491 565 45,000  Level Oakland Center
08:54AM 39.7536 -118.9250 56° Northeast 490 564 45,000  Level Oakland Center
08:55AM 39.8300 -118.7756 56° Northeast 491 565 45,000  Level Oakland Center
08:56AM 39.9061 -118.6253 57° Northeast 493 567 45,000  Level Oakland Center
08:57AM 39.9822 -118.4747 57° Northeast 494 568 45,000  Level Oakland Center
08:58AM 40.0589 -118.3222 57° Northeast 500 575 45,000  Level Oakland Center
08:59AM 40.1350 -118.1706 57° Northeast 499 574 45,000  Level Oakland Center
09:00AM 40.2003 -118.0386 57° Northeast 499 574 45,000  Level Salt Lake Center
09:01AM 40.2742 -117.8933 56° Northeast 500 575 45,000  Level Salt Lake Center
09:02AM 40.3458 -117.7483 57° Northeast 496 571 45,000  Level Salt Lake Center
09:03AM 40.4297 -117.5792 57° Northeast 495 570 45,000  Level Salt Lake Center
09:04AM 40.5014 -117.4331 57° Northeast 495 570 45,000  Level Salt Lake Center
09:05AM 40.5722 -117.2867 57° Northeast 494 568 45,000  Level Salt Lake Center
09:06AM 40.6442 -117.1403 57° Northeast 493 567 45,000  Level Salt Lake Center
09:07AM 40.7267 -116.9686 58° Northeast 492 566 45,000  Level Salt Lake Center
09:08AM 40.7981 -116.8219 57° Northeast 491 565 45,000  Level Salt Lake Center
09:09AM 40.8678 -116.6753 58° Northeast 492 566 45,000  Level Salt Lake Center
09:10AM 40.9508 -116.5039 57° Northeast 492 566 45,000  Level Salt Lake Center
09:11AM 41.0206 -116.3572 58° Northeast 492 566 45,000  Level Salt Lake Center
09:12AM 41.0878 -116.2083 59° Northeast 491 565 45,000  Level Salt Lake Center
09:13AM 41.1692 -116.0378 58° Northeast 490 564 45,000  Level Salt Lake Center
09:14AM 41.2392 -115.8903 58° Northeast 492 566 45,000  Level Salt Lake Center
09:15AM 41.3064 -115.7419 59° Northeast 489 563 45,000  Level Salt Lake Center
09:16AM 41.3864 -115.5692 58° Northeast 492 566 45,000  Level Salt Lake Center
09:17AM 41.4536 -115.4214 59° Northeast 489 563 45,000  Level Salt Lake Center
09:18AM 41.5231 -115.2719 58° Northeast 493 567 45,000  Level Salt Lake Center
09:19AM 41.6014 -115.0983 59° Northeast 490 564 45,000  Level Salt Lake Center
09:20AM 41.6689 -114.9483 59° Northeast 491 565 45,000  Level Salt Lake Center
09:21AM 41.7364 -114.7994 59° Northeast 490 564 45,000  Level Salt Lake Center
09:22AM 41.8144 -114.6244 59° Northeast 490 564 45,000  Level Salt Lake Center
09:23AM 41.8794 -114.4811 59° Northeast 491 565 45,000  Level Salt Lake Center
09:24AM 41.9481 -114.3233 60° Northeast 490 564 45,000  Level Salt Lake Center
09:25AM 42.0178 -114.1658 59° Northeast 491 565 45,000  Level Salt Lake Center
09:26AM 42.0878 -114.0086 59° Northeast 491 565 45,000  Level Salt Lake Center
09:27AM 42.1644 -113.8564 56° Northeast 491 565 45,000  Level Salt Lake Center
09:28AM 42.2522 -113.6722 57° Northeast 487 560 45,000  Level Salt Lake Center
09:29AM 42.3275 -113.5181 57° Northeast 490 564 45,000  Level Salt Lake Center
09:30AM 42.4014 -113.3639 57° Northeast 490 564 45,000  Level Salt Lake Center
09:31AM 42.4758 -113.2094 57° Northeast 490 564 45,000  Level Salt Lake Center
09:32AM 42.5492 -113.0564 57° Northeast 487 560 45,000 -960 Level Salt Lake Center
09:33AM 42.6222 -112.8989 58° Northeast 491 565 43,100 -2,340 Descending Salt Lake Center
09:34AM 42.6942 -112.7492 57° Northeast 492 566 40,300 -3,060 Descending Salt Lake Center
09:35AM 42.7758 -112.5767 57° Northeast 486 559 36,900 -3,120 Descending Salt Lake Center
09:36AM 42.8425 -112.4297 58° Northeast 479 551 34,000 -2,820 Descending Salt Lake Center
09:37AM 42.9086 -112.2925 57° Northeast 461 531 31,200 -3,060 Descending Salt Lake Center
09:38AM 42.9803 -112.1358 58° Northeast 439 505 27,800 -3,120 Descending Salt Lake Center
09:39AM 43.0464 -111.9922 58° Northeast 461 531 24,900 -3,060 Descending Salt Lake Center
09:40AM 43.1222 -111.8242 58° Northeast 465 535 21,600 -2,940 Descending Salt Lake Center
09:41AM 43.1842 -111.6869 58° Northeast 449 517 19,000 -2,220 Descending Salt Lake Center
09:42AM 43.2439 -111.5561 58° Northeast 432 497 17,100 -1,080 Descending Salt Lake Center
09:43AM 43.3117 -111.4044 58° Northeast 422 486 16,800 -300 Descending Salt Lake Center
09:44AM 43.3725 -111.2703 58° Northeast 420 483 16,600 -900 Descending Salt Lake Center
09:45AM 43.3642 -111.1392 95° East 358 412 15,000 -1,800 Descending Salt Lake Center
09:46AM 43.3561 -111.0186 95° East 323 372 13,000 -1,800 Descending Salt Lake Center
09:47AM 43.3728 -110.9203 77° East 276 318 11,400 -1,680 Descending Salt Lake Center
09:49AM 43.4186 -110.8536 47° Northeast 246 283 9,600 -1,140 Descending Salt Lake Center
09:50AM 43.4642 -110.8083 36° Northeast 216 249 9,200 -840 Descending Salt Lake Center
09:51AM 43.5244 -110.7786 20° North 200 230 8,000 -960 Descending Salt Lake Center
09:52AM 43.5583 -110.7617 20° North 157 181 7,300 -780 Descending Salt Lake Center
09:53AM 43.5942 -110.7444 19° North 140 161 6,500 -840 Descending Salt Lake Center